< < Back
Terminal Aerodrome Forecast


Current Version              Previous Versions:   1  2  3  4  5  6  7  8  9  

Terminal Aerodrome Forecast

404
FTUS44 KBMX 221100
TAFANB
TAF
KANB 221140Z 2212/2312 04003KT P6SM SCT250
     FM221800 10007KT P6SM BKN050
     FM222100 11006KT P6SM BKN025 BKN150
     FM230200 08007KT P6SM OVC020
     FM230800 07010KT P6SM SHRA OVC020=



Latest METAR

450
SAUS70 KWBC 230000 RRR
MTRANB
METAR KANB 222353Z AUTO 10008KT 10SM FEW070 16/05 A3020 RMK AO2 SLP230
T01610050 10194 20161 56005 $


USA.gov is the U.S. government's official web portal to all federal, state and local government web resources and services.